sensor_id;sensor_type;location;lat;lon;timestamp;P1;durP1;ratioP1;P2;durP2;ratioP2
75437;SDS011;64015;49.392;15.582;2023-08-24T00:00:38;6.10;;;4.53;;
75437;SDS011;64015;49.392;15.582;2023-08-24T00:03:25;6.95;;;4.80;;
75437;SDS011;64015;49.392;15.582;2023-08-24T00:05:51;7.20;;;5.07;;
75437;SDS011;64015;49.392;15.582;2023-08-24T00:08:16;6.93;;;5.30;;
75437;SDS011;64015;49.392;15.582;2023-08-24T00:10:43;6.05;;;4.82;;
75437;SDS011;64015;49.392;15.582;2023-08-24T00:13:11;7.93;;;5.50;;
75437;SDS011;64015;49.392;15.582;2023-08-24T00:15:38;11.70;;;5.25;;
75437;SDS011;64015;49.392;15.582;2023-08-24T00:18:04;7.72;;;5.35;;
75437;SDS011;64015;49.392;15.582;2023-08-24T00:20:31;8.13;;;5.25;;
75437;SDS011;64015;49.392;15.582;2023-08-24T00:23:00;7.00;;;5.68;;
75437;SDS011;64015;49.392;15.582;2023-08-24T00:25:26;7.07;;;4.90;;
75437;SDS011;64015;49.392;15.582;2023-08-24T00:27:52;7.97;;;5.40;;
75437;SDS011;64015;49.392;15.582;2023-08-24T00:30:19;7.70;;;5.07;;
75437;SDS011;64015;49.392;15.582;2023-08-24T00:32:44;11.07;;;6.13;;
75437;SDS011;64015;49.392;15.582;2023-08-24T00:35:10;8.05;;;5.60;;
75437;SDS011;64015;49.392;15.582;2023-08-24T00:37:36;7.22;;;5.90;;
75437;SDS011;64015;49.392;15.582;2023-08-24T00:40:03;9.73;;;5.38;;
75437;SDS011;64015;49.392;15.582;2023-08-24T00:42:37;9.63;;;5.70;;
75437;SDS011;64015;49.392;15.582;2023-08-24T00:45:04;7.65;;;5.65;;
75437;SDS011;64015;49.392;15.582;2023-08-24T00:47:30;7.38;;;5.57;;
75437;SDS011;64015;49.392;15.582;2023-08-24T00:49:56;7.40;;;5.18;;
75437;SDS011;64015;49.392;15.582;2023-08-24T00:52:21;8.65;;;5.10;;
75437;SDS011;64015;49.392;15.582;2023-08-24T00:54:47;6.45;;;4.93;;
75437;SDS011;64015;49.392;15.582;2023-08-24T00:57:13;10.73;;;5.80;;
75437;SDS011;64015;49.392;15.582;2023-08-24T00:59:39;8.27;;;6.07;;
75437;SDS011;64015;49.392;15.582;2023-08-24T01:02:05;8.32;;;5.38;;
75437;SDS011;64015;49.392;15.582;2023-08-24T01:04:30;5.53;;;4.93;;
75437;SDS011;64015;49.392;15.582;2023-08-24T01:06:57;8.32;;;4.90;;
75437;SDS011;64015;49.392;15.582;2023-08-24T01:09:23;10.13;;;5.60;;
75437;SDS011;64015;49.392;15.582;2023-08-24T01:17:10;7.78;;;5.70;;
75437;SDS011;64015;49.392;15.582;2023-08-24T01:19:44;7.10;;;5.65;;
75437;SDS011;64015;49.392;15.582;2023-08-24T01:26:10;7.03;;;4.97;;
75437;SDS011;64015;49.392;15.582;2023-08-24T01:28:13;7.95;;;5.32;;
75437;SDS011;64015;49.392;15.582;2023-08-24T01:30:40;7.72;;;5.60;;
75437;SDS011;64015;49.392;15.582;2023-08-24T01:33:05;6.45;;;5.57;;
75437;SDS011;64015;49.392;15.582;2023-08-24T01:35:37;6.05;;;5.00;;
75437;SDS011;64015;49.392;15.582;2023-08-24T01:38:03;9.45;;;5.68;;
75437;SDS011;64015;49.392;15.582;2023-08-24T01:40:47;7.85;;;5.65;;
75437;SDS011;64015;49.392;15.582;2023-08-24T01:43:20;6.90;;;5.55;;
75437;SDS011;64015;49.392;15.582;2023-08-24T01:45:50;6.93;;;5.45;;
75437;SDS011;64015;49.392;15.582;2023-08-24T01:50:43;7.00;;;5.07;;
75437;SDS011;64015;49.392;15.582;2023-08-24T01:53:09;8.25;;;5.88;;
75437;SDS011;64015;49.392;15.582;2023-08-24T01:55:35;8.23;;;5.80;;
75437;SDS011;64015;49.392;15.582;2023-08-24T01:58:01;8.52;;;5.82;;
75437;SDS011;64015;49.392;15.582;2023-08-24T02:00:27;8.52;;;6.95;;
75437;SDS011;64015;49.392;15.582;2023-08-24T02:02:53;8.10;;;5.70;;
75437;SDS011;64015;49.392;15.582;2023-08-24T02:05:19;8.77;;;5.47;;
75437;SDS011;64015;49.392;15.582;2023-08-24T02:07:44;8.52;;;6.15;;
75437;SDS011;64015;49.392;15.582;2023-08-24T02:10:10;7.50;;;5.47;;
75437;SDS011;64015;49.392;15.582;2023-08-24T02:12:36;8.30;;;5.97;;
75437;SDS011;64015;49.392;15.582;2023-08-24T02:15:02;9.07;;;5.82;;
75437;SDS011;64015;49.392;15.582;2023-08-24T02:17:28;7.60;;;5.55;;
75437;SDS011;64015;49.392;15.582;2023-08-24T02:19:54;7.40;;;5.75;;
75437;SDS011;64015;49.392;15.582;2023-08-24T02:22:20;6.97;;;5.57;;
75437;SDS011;64015;49.392;15.582;2023-08-24T02:24:46;6.60;;;5.20;;
75437;SDS011;64015;49.392;15.582;2023-08-24T02:27:11;10.45;;;5.93;;
75437;SDS011;64015;49.392;15.582;2023-08-24T02:29:37;9.00;;;5.57;;
75437;SDS011;64015;49.392;15.582;2023-08-24T02:32:04;7.82;;;5.90;;
75437;SDS011;64015;49.392;15.582;2023-08-24T02:34:30;9.70;;;6.28;;
75437;SDS011;64015;49.392;15.582;2023-08-24T02:36:56;7.18;;;5.88;;
75437;SDS011;64015;49.392;15.582;2023-08-24T02:39:22;9.85;;;5.82;;
75437;SDS011;64015;49.392;15.582;2023-08-24T02:41:48;6.80;;;5.60;;
75437;SDS011;64015;49.392;15.582;2023-08-24T02:44:14;7.75;;;6.43;;
75437;SDS011;64015;49.392;15.582;2023-08-24T02:46:43;11.05;;;6.60;;
75437;SDS011;64015;49.392;15.582;2023-08-24T02:49:09;8.90;;;6.40;;
75437;SDS011;64015;49.392;15.582;2023-08-24T02:51:35;10.15;;;6.43;;
75437;SDS011;64015;49.392;15.582;2023-08-24T02:54:01;10.77;;;6.45;;
75437;SDS011;64015;49.392;15.582;2023-08-24T02:56:26;9.65;;;6.10;;
75437;SDS011;64015;49.392;15.582;2023-08-24T02:58:52;11.07;;;7.05;;
75437;SDS011;64015;49.392;15.582;2023-08-24T03:01:18;10.07;;;5.95;;
75437;SDS011;64015;49.392;15.582;2023-08-24T03:03:43;7.22;;;5.80;;
75437;SDS011;64015;49.392;15.582;2023-08-24T03:06:09;8.93;;;6.35;;
75437;SDS011;64015;49.392;15.582;2023-08-24T03:08:36;8.18;;;5.82;;
75437;SDS011;64015;49.392;15.582;2023-08-24T03:11:02;7.30;;;5.72;;
75437;SDS011;64015;49.392;15.582;2023-08-24T03:13:28;8.45;;;6.10;;
75437;SDS011;64015;49.392;15.582;2023-08-24T03:18:21;7.32;;;6.00;;
75437;SDS011;64015;49.392;15.582;2023-08-24T03:20:47;8.13;;;6.13;;
75437;SDS011;64015;49.392;15.582;2023-08-24T03:23:14;8.55;;;6.10;;
75437;SDS011;64015;49.392;15.582;2023-08-24T03:25:41;8.05;;;6.00;;
75437;SDS011;64015;49.392;15.582;2023-08-24T03:28:08;8.48;;;6.25;;
75437;SDS011;64015;49.392;15.582;2023-08-24T03:30:38;7.43;;;6.05;;
75437;SDS011;64015;49.392;15.582;2023-08-24T03:33:11;8.18;;;5.30;;
75437;SDS011;64015;49.392;15.582;2023-08-24T03:35:37;9.27;;;6.25;;
75437;SDS011;64015;49.392;15.582;2023-08-24T03:38:03;7.20;;;5.95;;
75437;SDS011;64015;49.392;15.582;2023-08-24T03:40:29;7.88;;;5.95;;
75437;SDS011;64015;49.392;15.582;2023-08-24T03:42:56;8.15;;;6.15;;
75437;SDS011;64015;49.392;15.582;2023-08-24T03:45:21;10.45;;;5.85;;
75437;SDS011;64015;49.392;15.582;2023-08-24T03:47:47;7.13;;;6.10;;
75437;SDS011;64015;49.392;15.582;2023-08-24T03:50:13;7.57;;;6.72;;
75437;SDS011;64015;49.392;15.582;2023-08-24T03:52:39;8.32;;;6.00;;
75437;SDS011;64015;49.392;15.582;2023-08-24T03:55:06;9.75;;;5.93;;
75437;SDS011;64015;49.392;15.582;2023-08-24T03:57:32;8.18;;;5.60;;
75437;SDS011;64015;49.392;15.582;2023-08-24T03:59:58;7.90;;;5.50;;
75437;SDS011;64015;49.392;15.582;2023-08-24T04:02:24;6.88;;;5.35;;
75437;SDS011;64015;49.392;15.582;2023-08-24T04:04:52;8.15;;;5.78;;
75437;SDS011;64015;49.392;15.582;2023-08-24T04:07:18;6.75;;;5.90;;
75437;SDS011;64015;49.392;15.582;2023-08-24T04:09:44;10.43;;;6.00;;
75437;SDS011;64015;49.392;15.582;2023-08-24T04:12:11;8.05;;;6.43;;
75437;SDS011;64015;49.392;15.582;2023-08-24T04:14:36;7.68;;;6.03;;
75437;SDS011;64015;49.392;15.582;2023-08-24T04:17:02;9.10;;;5.65;;
75437;SDS011;64015;49.392;15.582;2023-08-24T04:19:28;8.90;;;6.03;;
75437;SDS011;64015;49.392;15.582;2023-08-24T04:21:54;7.95;;;6.20;;
75437;SDS011;64015;49.392;15.582;2023-08-24T04:24:19;8.48;;;5.95;;
75437;SDS011;64015;49.392;15.582;2023-08-24T04:26:45;8.20;;;6.15;;
75437;SDS011;64015;49.392;15.582;2023-08-24T04:29:11;9.23;;;6.10;;
75437;SDS011;64015;49.392;15.582;2023-08-24T04:31:37;8.93;;;5.82;;
75437;SDS011;64015;49.392;15.582;2023-08-24T04:34:05;9.13;;;7.10;;
75437;SDS011;64015;49.392;15.582;2023-08-24T04:36:31;11.13;;;6.70;;
75437;SDS011;64015;49.392;15.582;2023-08-24T04:38:56;7.95;;;6.30;;
75437;SDS011;64015;49.392;15.582;2023-08-24T04:41:22;8.73;;;6.13;;
75437;SDS011;64015;49.392;15.582;2023-08-24T04:43:48;9.45;;;6.82;;
75437;SDS011;64015;49.392;15.582;2023-08-24T04:46:13;9.43;;;6.78;;
75437;SDS011;64015;49.392;15.582;2023-08-24T04:48:39;8.40;;;6.35;;
75437;SDS011;64015;49.392;15.582;2023-08-24T04:51:04;9.30;;;6.65;;
75437;SDS011;64015;49.392;15.582;2023-08-24T04:53:30;9.35;;;7.38;;
75437;SDS011;64015;49.392;15.582;2023-08-24T04:55:56;7.78;;;5.88;;
75437;SDS011;64015;49.392;15.582;2023-08-24T04:58:21;10.13;;;7.35;;
75437;SDS011;64015;49.392;15.582;2023-08-24T05:03:14;8.52;;;6.57;;
75437;SDS011;64015;49.392;15.582;2023-08-24T05:05:40;9.13;;;6.72;;
75437;SDS011;64015;49.392;15.582;2023-08-24T05:08:05;9.30;;;7.28;;
75437;SDS011;64015;49.392;15.582;2023-08-24T05:10:35;8.75;;;6.38;;
75437;SDS011;64015;49.392;15.582;2023-08-24T05:13:01;10.00;;;7.15;;
75437;SDS011;64015;49.392;15.582;2023-08-24T05:15:27;9.30;;;7.25;;
75437;SDS011;64015;49.392;15.582;2023-08-24T05:17:52;8.43;;;6.10;;
75437;SDS011;64015;49.392;15.582;2023-08-24T05:20:20;10.02;;;7.47;;
75437;SDS011;64015;49.392;15.582;2023-08-24T05:22:46;9.55;;;7.13;;
75437;SDS011;64015;49.392;15.582;2023-08-24T05:25:13;11.02;;;8.10;;
75437;SDS011;64015;49.392;15.582;2023-08-24T05:27:39;10.07;;;8.32;;
75437;SDS011;64015;49.392;15.582;2023-08-24T05:30:05;11.70;;;8.38;;
75437;SDS011;64015;49.392;15.582;2023-08-24T05:32:31;10.50;;;8.23;;
75437;SDS011;64015;49.392;15.582;2023-08-24T05:34:57;12.35;;;8.50;;
75437;SDS011;64015;49.392;15.582;2023-08-24T05:37:23;11.07;;;7.22;;
75437;SDS011;64015;49.392;15.582;2023-08-24T05:39:49;11.13;;;7.38;;
75437;SDS011;64015;49.392;15.582;2023-08-24T05:42:15;12.38;;;7.75;;
75437;SDS011;64015;49.392;15.582;2023-08-24T05:44:41;11.20;;;8.30;;
75437;SDS011;64015;49.392;15.582;2023-08-24T05:47:06;12.45;;;8.93;;
75437;SDS011;64015;49.392;15.582;2023-08-24T05:49:32;11.13;;;8.32;;
75437;SDS011;64015;49.392;15.582;2023-08-24T05:51:58;10.05;;;7.68;;
75437;SDS011;64015;49.392;15.582;2023-08-24T05:54:23;11.45;;;8.35;;
75437;SDS011;64015;49.392;15.582;2023-08-24T05:56:49;10.43;;;7.90;;
75437;SDS011;64015;49.392;15.582;2023-08-24T05:59:15;12.23;;;8.60;;
75437;SDS011;64015;49.392;15.582;2023-08-24T06:01:41;10.35;;;7.75;;
75437;SDS011;64015;49.392;15.582;2023-08-24T06:06:33;14.25;;;9.25;;
75437;SDS011;64015;49.392;15.582;2023-08-24T06:08:59;12.23;;;8.55;;
75437;SDS011;64015;49.392;15.582;2023-08-24T06:11:25;11.07;;;7.60;;
75437;SDS011;64015;49.392;15.582;2023-08-24T06:13:50;10.65;;;7.50;;
75437;SDS011;64015;49.392;15.582;2023-08-24T06:16:19;11.65;;;7.95;;
75437;SDS011;64015;49.392;15.582;2023-08-24T06:18:45;10.55;;;8.15;;
75437;SDS011;64015;49.392;15.582;2023-08-24T06:21:11;11.35;;;7.47;;
75437;SDS011;64015;49.392;15.582;2023-08-24T06:23:38;13.20;;;8.10;;
75437;SDS011;64015;49.392;15.582;2023-08-24T06:28:31;12.45;;;7.45;;
75437;SDS011;64015;49.392;15.582;2023-08-24T06:30:56;12.23;;;7.72;;
75437;SDS011;64015;49.392;15.582;2023-08-24T06:33:28;14.02;;;7.75;;
75437;SDS011;64015;49.392;15.582;2023-08-24T06:35:58;10.80;;;7.88;;
75437;SDS011;64015;49.392;15.582;2023-08-24T06:38:25;11.45;;;7.90;;
75437;SDS011;64015;49.392;15.582;2023-08-24T06:40:50;12.65;;;8.00;;
75437;SDS011;64015;49.392;15.582;2023-08-24T06:43:17;10.63;;;6.30;;
75437;SDS011;64015;49.392;15.582;2023-08-24T06:45:45;10.48;;;7.65;;
75437;SDS011;64015;49.392;15.582;2023-08-24T06:48:11;11.85;;;7.57;;
75437;SDS011;64015;49.392;15.582;2023-08-24T06:50:36;11.15;;;8.05;;
75437;SDS011;64015;49.392;15.582;2023-08-24T06:53:05;13.02;;;8.20;;
75437;SDS011;64015;49.392;15.582;2023-08-24T06:55:31;10.43;;;7.25;;
75437;SDS011;64015;49.392;15.582;2023-08-24T06:57:57;9.23;;;7.30;;
75437;SDS011;64015;49.392;15.582;2023-08-24T07:00:22;12.00;;;7.03;;
75437;SDS011;64015;49.392;15.582;2023-08-24T07:02:49;10.93;;;7.78;;
75437;SDS011;64015;49.392;15.582;2023-08-24T07:05:15;11.50;;;7.63;;
75437;SDS011;64015;49.392;15.582;2023-08-24T07:07:44;10.80;;;7.85;;
75437;SDS011;64015;49.392;15.582;2023-08-24T07:10:11;13.73;;;8.32;;
75437;SDS011;64015;49.392;15.582;2023-08-24T07:12:37;10.40;;;8.40;;
75437;SDS011;64015;49.392;15.582;2023-08-24T07:15:06;13.48;;;7.72;;
75437;SDS011;64015;49.392;15.582;2023-08-24T07:17:32;12.15;;;7.97;;
75437;SDS011;64015;49.392;15.582;2023-08-24T07:19:58;12.75;;;9.23;;
75437;SDS011;64015;49.392;15.582;2023-08-24T07:22:24;15.77;;;9.48;;
75437;SDS011;64015;49.392;15.582;2023-08-24T07:24:52;15.52;;;10.02;;
75437;SDS011;64015;49.392;15.582;2023-08-24T07:27:18;12.43;;;9.45;;
75437;SDS011;64015;49.392;15.582;2023-08-24T07:29:44;14.68;;;10.15;;
75437;SDS011;64015;49.392;15.582;2023-08-24T07:32:09;15.07;;;11.00;;
75437;SDS011;64015;49.392;15.582;2023-08-24T07:34:35;13.77;;;10.57;;
75437;SDS011;64015;49.392;15.582;2023-08-24T07:37:01;14.43;;;10.15;;
75437;SDS011;64015;49.392;15.582;2023-08-24T07:39:27;14.23;;;10.55;;
75437;SDS011;64015;49.392;15.582;2023-08-24T07:41:53;15.32;;;9.85;;
75437;SDS011;64015;49.392;15.582;2023-08-24T07:44:18;11.73;;;10.00;;
75437;SDS011;64015;49.392;15.582;2023-08-24T07:46:44;14.73;;;9.23;;
75437;SDS011;64015;49.392;15.582;2023-08-24T07:49:10;12.75;;;8.73;;
75437;SDS011;64015;49.392;15.582;2023-08-24T07:51:36;12.40;;;8.88;;
75437;SDS011;64015;49.392;15.582;2023-08-24T07:54:01;11.55;;;9.05;;
75437;SDS011;64015;49.392;15.582;2023-08-24T07:56:29;12.60;;;7.68;;
75437;SDS011;64015;49.392;15.582;2023-08-24T07:58:55;11.70;;;8.60;;
75437;SDS011;64015;49.392;15.582;2023-08-24T08:01:21;11.48;;;8.25;;
75437;SDS011;64015;49.392;15.582;2023-08-24T08:03:47;8.93;;;5.75;;
75437;SDS011;64015;49.392;15.582;2023-08-24T08:06:13;6.22;;;5.47;;
75437;SDS011;64015;49.392;15.582;2023-08-24T08:08:39;10.70;;;6.63;;
75437;SDS011;64015;49.392;15.582;2023-08-24T08:11:04;8.52;;;5.80;;
75437;SDS011;64015;49.392;15.582;2023-08-24T08:13:30;11.02;;;5.43;;
75437;SDS011;64015;49.392;15.582;2023-08-24T08:16:05;9.65;;;5.93;;
75437;SDS011;64015;49.392;15.582;2023-08-24T08:18:32;7.60;;;5.90;;
75437;SDS011;64015;49.392;15.582;2023-08-24T08:21:00;7.10;;;5.82;;
75437;SDS011;64015;49.392;15.582;2023-08-24T08:23:25;10.98;;;5.72;;
75437;SDS011;64015;49.392;15.582;2023-08-24T08:25:51;12.52;;;6.72;;
75437;SDS011;64015;49.392;15.582;2023-08-24T08:28:17;10.95;;;5.75;;
75437;SDS011;64015;49.392;15.582;2023-08-24T08:33:09;10.00;;;6.60;;
75437;SDS011;64015;49.392;15.582;2023-08-24T08:35:35;24.60;;;11.80;;
75437;SDS011;64015;49.392;15.582;2023-08-24T08:38:03;13.38;;;6.50;;
75437;SDS011;64015;49.392;15.582;2023-08-24T08:40:29;24.02;;;11.80;;
75437;SDS011;64015;49.392;15.582;2023-08-24T08:42:57;16.73;;;8.65;;
75437;SDS011;64015;49.392;15.582;2023-08-24T08:45:26;11.95;;;7.28;;
75437;SDS011;64015;49.392;15.582;2023-08-24T08:47:53;6.97;;;5.35;;
75437;SDS011;64015;49.392;15.582;2023-08-24T08:50:23;8.13;;;4.82;;
75437;SDS011;64015;49.392;15.582;2023-08-24T08:52:49;8.02;;;5.10;;
75437;SDS011;64015;49.392;15.582;2023-08-24T08:55:15;8.95;;;4.65;;
75437;SDS011;64015;49.392;15.582;2023-08-24T08:57:41;7.65;;;4.82;;
75437;SDS011;64015;49.392;15.582;2023-08-24T09:00:11;8.73;;;5.30;;
75437;SDS011;64015;49.392;15.582;2023-08-24T09:02:42;7.18;;;4.13;;
75437;SDS011;64015;49.392;15.582;2023-08-24T09:05:09;11.45;;;6.07;;
75437;SDS011;64015;49.392;15.582;2023-08-24T09:10:03;7.72;;;5.57;;
75437;SDS011;64015;49.392;15.582;2023-08-24T09:12:33;7.05;;;5.18;;
75437;SDS011;64015;49.392;15.582;2023-08-24T09:14:59;7.68;;;5.35;;
75437;SDS011;64015;49.392;15.582;2023-08-24T09:17:25;6.97;;;5.70;;
75437;SDS011;64015;49.392;15.582;2023-08-24T09:19:52;8.30;;;6.00;;
75437;SDS011;64015;49.392;15.582;2023-08-24T09:22:22;8.25;;;6.15;;
75437;SDS011;64015;49.392;15.582;2023-08-24T09:24:48;9.15;;;4.90;;
75437;SDS011;64015;49.392;15.582;2023-08-24T09:27:18;7.03;;;5.90;;
75437;SDS011;64015;49.392;15.582;2023-08-24T09:29:49;7.85;;;5.78;;
75437;SDS011;64015;49.392;15.582;2023-08-24T09:32:15;6.78;;;5.38;;
75437;SDS011;64015;49.392;15.582;2023-08-24T09:34:47;8.18;;;5.45;;
75437;SDS011;64015;49.392;15.582;2023-08-24T09:37:13;11.07;;;6.25;;
75437;SDS011;64015;49.392;15.582;2023-08-24T09:39:41;6.35;;;5.55;;
75437;SDS011;64015;49.392;15.582;2023-08-24T09:42:07;10.32;;;5.70;;
75437;SDS011;64015;49.392;15.582;2023-08-24T09:44:32;9.90;;;5.35;;
75437;SDS011;64015;49.392;15.582;2023-08-24T09:46:58;9.65;;;5.60;;
75437;SDS011;64015;49.392;15.582;2023-08-24T09:49:24;7.65;;;5.68;;
75437;SDS011;64015;49.392;15.582;2023-08-24T09:51:51;7.32;;;5.70;;
75437;SDS011;64015;49.392;15.582;2023-08-24T09:54:26;8.65;;;5.60;;
75437;SDS011;64015;49.392;15.582;2023-08-24T09:56:56;10.77;;;6.50;;
75437;SDS011;64015;49.392;15.582;2023-08-24T09:59:25;7.97;;;6.82;;
75437;SDS011;64015;49.392;15.582;2023-08-24T10:01:53;8.05;;;6.07;;
75437;SDS011;64015;49.392;15.582;2023-08-24T10:04:23;6.97;;;6.20;;
75437;SDS011;64015;49.392;15.582;2023-08-24T10:06:55;11.70;;;6.60;;
75437;SDS011;64015;49.392;15.582;2023-08-24T10:09:28;7.30;;;5.60;;
75437;SDS011;64015;49.392;15.582;2023-08-24T10:11:58;9.05;;;5.68;;
75437;SDS011;64015;49.392;15.582;2023-08-24T10:14:31;7.32;;;5.43;;
75437;SDS011;64015;49.392;15.582;2023-08-24T10:17:01;9.18;;;6.50;;
75437;SDS011;64015;49.392;15.582;2023-08-24T10:19:28;6.78;;;5.70;;
75437;SDS011;64015;49.392;15.582;2023-08-24T10:21:55;8.70;;;5.55;;
75437;SDS011;64015;49.392;15.582;2023-08-24T10:24:23;10.32;;;6.50;;
75437;SDS011;64015;49.392;15.582;2023-08-24T10:26:49;14.02;;;8.10;;
75437;SDS011;64015;49.392;15.582;2023-08-24T10:29:16;8.95;;;5.47;;
75437;SDS011;64015;49.392;15.582;2023-08-24T10:31:42;9.50;;;5.70;;
75437;SDS011;64015;49.392;15.582;2023-08-24T10:34:09;7.15;;;5.68;;
75437;SDS011;64015;49.392;15.582;2023-08-24T10:36:38;9.85;;;6.03;;
75437;SDS011;64015;49.392;15.582;2023-08-24T10:39:05;7.53;;;5.57;;
75437;SDS011;64015;49.392;15.582;2023-08-24T10:44:20;7.72;;;6.13;;
75437;SDS011;64015;49.392;15.582;2023-08-24T10:47:05;5.78;;;5.28;;
75437;SDS011;64015;49.392;15.582;2023-08-24T10:52:32;7.00;;;5.97;;
75437;SDS011;64015;49.392;15.582;2023-08-24T10:55:01;7.05;;;5.60;;
75437;SDS011;64015;49.392;15.582;2023-08-24T10:57:35;6.93;;;6.22;;
75437;SDS011;64015;49.392;15.582;2023-08-24T11:00:07;7.28;;;5.82;;
75437;SDS011;64015;49.392;15.582;2023-08-24T11:02:53;7.28;;;5.88;;
75437;SDS011;64015;49.392;15.582;2023-08-24T11:05:27;8.75;;;6.10;;
75437;SDS011;64015;49.392;15.582;2023-08-24T11:13:15;6.05;;;5.45;;
75437;SDS011;64015;49.392;15.582;2023-08-24T11:15:45;8.93;;;5.43;;
75437;SDS011;64015;49.392;15.582;2023-08-24T11:18:19;7.05;;;5.97;;
75437;SDS011;64015;49.392;15.582;2023-08-24T11:20:46;6.97;;;5.40;;
75437;SDS011;64015;49.392;15.582;2023-08-24T11:23:14;6.53;;;5.82;;
75437;SDS011;64015;49.392;15.582;2023-08-24T11:25:41;6.32;;;5.72;;
75437;SDS011;64015;49.392;15.582;2023-08-24T11:28:06;8.00;;;5.65;;
75437;SDS011;64015;49.392;15.582;2023-08-24T11:30:33;7.18;;;5.82;;
75437;SDS011;64015;49.392;15.582;2023-08-24T11:33:00;12.70;;;5.85;;
75437;SDS011;64015;49.392;15.582;2023-08-24T11:35:29;7.07;;;6.38;;
75437;SDS011;64015;49.392;15.582;2023-08-24T11:38:00;6.53;;;5.85;;
75437;SDS011;64015;49.392;15.582;2023-08-24T11:40:26;6.78;;;6.10;;
75437;SDS011;64015;49.392;15.582;2023-08-24T11:42:55;6.63;;;5.63;;
75437;SDS011;64015;49.392;15.582;2023-08-24T11:45:21;6.82;;;6.10;;
75437;SDS011;64015;49.392;15.582;2023-08-24T11:47:48;6.35;;;5.38;;
75437;SDS011;64015;49.392;15.582;2023-08-24T11:50:15;6.25;;;5.22;;
75437;SDS011;64015;49.392;15.582;2023-08-24T11:52:41;6.75;;;5.28;;
75437;SDS011;64015;49.392;15.582;2023-08-24T11:55:09;8.98;;;5.53;;
75437;SDS011;64015;49.392;15.582;2023-08-24T11:57:36;8.50;;;5.57;;
75437;SDS011;64015;49.392;15.582;2023-08-24T12:00:05;6.20;;;5.60;;
75437;SDS011;64015;49.392;15.582;2023-08-24T12:02:32;6.05;;;5.00;;
75437;SDS011;64015;49.392;15.582;2023-08-24T12:04:58;7.30;;;5.53;;
75437;SDS011;64015;49.392;15.582;2023-08-24T12:07:24;7.93;;;6.10;;
75437;SDS011;64015;49.392;15.582;2023-08-24T12:09:51;6.47;;;5.22;;
75437;SDS011;64015;49.392;15.582;2023-08-24T12:12:19;6.18;;;5.68;;
75437;SDS011;64015;49.392;15.582;2023-08-24T12:14:47;8.20;;;6.45;;
75437;SDS011;64015;49.392;15.582;2023-08-24T12:17:13;5.97;;;5.35;;
75437;SDS011;64015;49.392;15.582;2023-08-24T12:19:41;7.88;;;7.07;;
75437;SDS011;64015;49.392;15.582;2023-08-24T12:22:12;5.57;;;5.03;;
75437;SDS011;64015;49.392;15.582;2023-08-24T12:24:45;6.38;;;5.70;;
75437;SDS011;64015;49.392;15.582;2023-08-24T12:27:18;6.32;;;5.25;;
75437;SDS011;64015;49.392;15.582;2023-08-24T12:29:45;6.07;;;5.10;;
75437;SDS011;64015;49.392;15.582;2023-08-24T12:32:11;6.75;;;5.15;;
75437;SDS011;64015;49.392;15.582;2023-08-24T12:34:37;7.00;;;5.05;;
75437;SDS011;64015;49.392;15.582;2023-08-24T12:37:02;5.90;;;5.40;;
75437;SDS011;64015;49.392;15.582;2023-08-24T12:39:29;6.90;;;5.55;;
75437;SDS011;64015;49.392;15.582;2023-08-24T12:44:26;8.23;;;5.13;;
75437;SDS011;64015;49.392;15.582;2023-08-24T12:46:51;5.47;;;4.88;;
75437;SDS011;64015;49.392;15.582;2023-08-24T12:49:17;6.32;;;4.72;;
75437;SDS011;64015;49.392;15.582;2023-08-24T12:51:43;6.40;;;5.80;;
75437;SDS011;64015;49.392;15.582;2023-08-24T12:54:08;8.35;;;5.47;;
75437;SDS011;64015;49.392;15.582;2023-08-24T12:56:35;7.28;;;6.57;;
75437;SDS011;64015;49.392;15.582;2023-08-24T12:59:01;6.53;;;5.38;;
75437;SDS011;64015;49.392;15.582;2023-08-24T13:01:27;5.70;;;5.20;;
75437;SDS011;64015;49.392;15.582;2023-08-24T13:03:52;7.00;;;5.30;;
75437;SDS011;64015;49.392;15.582;2023-08-24T13:06:18;7.93;;;3.95;;
75437;SDS011;64015;49.392;15.582;2023-08-24T13:08:44;5.97;;;5.47;;
75437;SDS011;64015;49.392;15.582;2023-08-24T13:11:09;9.40;;;5.18;;
75437;SDS011;64015;49.392;15.582;2023-08-24T13:13:36;6.10;;;5.50;;
75437;SDS011;64015;49.392;15.582;2023-08-24T13:16:02;6.43;;;4.85;;
75437;SDS011;64015;49.392;15.582;2023-08-24T13:18:28;6.47;;;5.10;;
75437;SDS011;64015;49.392;15.582;2023-08-24T13:20:53;8.23;;;5.70;;
75437;SDS011;64015;49.392;15.582;2023-08-24T13:23:19;9.73;;;7.00;;
75437;SDS011;64015;49.392;15.582;2023-08-24T13:25:45;6.70;;;5.57;;
75437;SDS011;64015;49.392;15.582;2023-08-24T13:28:10;6.03;;;5.05;;
75437;SDS011;64015;49.392;15.582;2023-08-24T13:30:36;5.82;;;5.13;;
75437;SDS011;64015;49.392;15.582;2023-08-24T13:33:02;7.32;;;5.47;;
75437;SDS011;64015;49.392;15.582;2023-08-24T13:35:28;5.85;;;4.90;;
75437;SDS011;64015;49.392;15.582;2023-08-24T13:37:53;6.05;;;5.20;;
75437;SDS011;64015;49.392;15.582;2023-08-24T13:40:19;6.55;;;5.25;;
75437;SDS011;64015;49.392;15.582;2023-08-24T13:42:45;6.35;;;5.75;;
75437;SDS011;64015;49.392;15.582;2023-08-24T13:45:10;8.60;;;5.50;;
75437;SDS011;64015;49.392;15.582;2023-08-24T13:47:36;6.18;;;5.68;;
75437;SDS011;64015;49.392;15.582;2023-08-24T13:50:02;5.53;;;5.03;;
75437;SDS011;64015;49.392;15.582;2023-08-24T13:52:28;5.30;;;4.80;;
75437;SDS011;64015;49.392;15.582;2023-08-24T13:54:53;6.28;;;4.82;;
75437;SDS011;64015;49.392;15.582;2023-08-24T13:57:19;5.20;;;4.53;;
75437;SDS011;64015;49.392;15.582;2023-08-24T13:59:44;6.70;;;4.72;;
75437;SDS011;64015;49.392;15.582;2023-08-24T14:02:10;5.15;;;4.65;;
75437;SDS011;64015;49.392;15.582;2023-08-24T14:04:37;6.85;;;5.53;;
75437;SDS011;64015;49.392;15.582;2023-08-24T14:07:03;5.63;;;5.13;;
75437;SDS011;64015;49.392;15.582;2023-08-24T14:09:29;5.55;;;5.05;;
75437;SDS011;64015;49.392;15.582;2023-08-24T14:11:55;5.15;;;4.32;;
75437;SDS011;64015;49.392;15.582;2023-08-24T14:14:21;5.22;;;4.20;;
75437;SDS011;64015;49.392;15.582;2023-08-24T14:16:48;4.68;;;4.18;;
75437;SDS011;64015;49.392;15.582;2023-08-24T14:19:19;5.93;;;3.90;;
75437;SDS011;64015;49.392;15.582;2023-08-24T14:21:45;6.22;;;4.72;;
75437;SDS011;64015;49.392;15.582;2023-08-24T14:24:10;6.93;;;4.45;;
75437;SDS011;64015;49.392;15.582;2023-08-24T14:26:36;6.53;;;4.43;;
75437;SDS011;64015;49.392;15.582;2023-08-24T14:29:04;5.20;;;3.85;;
75437;SDS011;64015;49.392;15.582;2023-08-24T14:31:30;5.53;;;4.07;;
75437;SDS011;64015;49.392;15.582;2023-08-24T14:33:56;4.85;;;4.18;;
75437;SDS011;64015;49.392;15.582;2023-08-24T14:36:22;7.30;;;4.07;;
75437;SDS011;64015;49.392;15.582;2023-08-24T14:38:48;4.78;;;4.00;;
75437;SDS011;64015;49.392;15.582;2023-08-24T14:41:15;6.65;;;3.97;;
75437;SDS011;64015;49.392;15.582;2023-08-24T14:43:41;5.40;;;4.00;;
75437;SDS011;64015;49.392;15.582;2023-08-24T14:46:07;4.75;;;3.85;;
75437;SDS011;64015;49.392;15.582;2023-08-24T14:48:33;4.70;;;3.72;;
75437;SDS011;64015;49.392;15.582;2023-08-24T14:50:59;5.40;;;3.88;;
75437;SDS011;64015;49.392;15.582;2023-08-24T14:53:25;6.25;;;4.35;;
75437;SDS011;64015;49.392;15.582;2023-08-24T14:55:54;5.47;;;4.10;;
75437;SDS011;64015;49.392;15.582;2023-08-24T14:58:21;3.95;;;3.55;;
75437;SDS011;64015;49.392;15.582;2023-08-24T15:00:48;5.35;;;4.05;;
75437;SDS011;64015;49.392;15.582;2023-08-24T15:03:15;5.78;;;4.38;;
75437;SDS011;64015;49.392;15.582;2023-08-24T15:05:43;6.43;;;3.85;;
75437;SDS011;64015;49.392;15.582;2023-08-24T15:08:20;4.70;;;3.60;;